createdAt,value
2022-08-14T00:02:01.670Z,7.05
2022-08-14T00:04:32.270Z,6.60
2022-08-14T00:07:07.029Z,6.85
2022-08-14T00:09:40.048Z,6.80
2022-08-14T00:12:33.058Z,6.78
2022-08-14T00:15:06.619Z,7.13
2022-08-14T00:17:47.489Z,6.40
2022-08-14T00:20:24.173Z,6.93
2022-08-14T00:22:58.774Z,7.63
2022-08-14T00:25:42.431Z,7.15
2022-08-14T00:28:15.590Z,7.43
2022-08-14T00:30:46.381Z,7.13
2022-08-14T00:33:16.580Z,7.03
2022-08-14T00:36:36.689Z,7.60
2022-08-14T00:38:34.727Z,7.50
2022-08-14T00:41:03.881Z,7.32
2022-08-14T00:43:33.417Z,7.32
2022-08-14T00:46:05.333Z,7.78
2022-08-14T00:48:36.902Z,7.45
2022-08-14T00:51:08.858Z,8.10
2022-08-14T00:53:37.094Z,7.65
2022-08-14T00:56:08.528Z,7.63
2022-08-14T00:58:45.248Z,7.47
2022-08-14T01:01:18.731Z,7.50
2022-08-14T01:03:49.712Z,7.60
2022-08-14T01:06:21.224Z,8.02
2022-08-14T01:08:58.192Z,8.13
2022-08-14T01:11:35.540Z,7.70
2022-08-14T01:14:25.753Z,7.82
2022-08-14T01:16:55.569Z,8.00
2022-08-14T01:19:41.643Z,8.05
2022-08-14T01:22:13.031Z,7.72
2022-08-14T01:24:43.527Z,7.95
2022-08-14T01:27:16.053Z,7.95
2022-08-14T01:30:26.037Z,8.23
2022-08-14T01:33:04.100Z,8.45
2022-08-14T01:36:03.383Z,8.80
2022-08-14T01:38:38.534Z,8.23
2022-08-14T01:41:19.688Z,8.15
2022-08-14T01:44:32.089Z,7.65
2022-08-14T01:47:21.647Z,8.68
2022-08-14T01:49:59.490Z,8.50
2022-08-14T01:52:59.998Z,7.65
2022-08-14T01:55:35.461Z,8.20
2022-08-14T01:58:19.746Z,8.25
2022-08-14T02:01:02.581Z,8.45
2022-08-14T02:03:34.624Z,8.90
2022-08-14T02:06:33.228Z,8.07
2022-08-14T02:08:59.874Z,8.60
2022-08-14T02:11:37.977Z,9.25
2022-08-14T02:14:14.198Z,8.05
2022-08-14T02:16:48.602Z,7.93
2022-08-14T02:19:19.271Z,8.52
2022-08-14T02:21:54.617Z,8.65
2022-08-14T02:24:39.408Z,8.82
2022-08-14T02:28:22.294Z,8.80
2022-08-14T02:30:02.399Z,8.57
2022-08-14T02:32:36.165Z,8.93
2022-08-14T02:35:10.723Z,9.05
2022-08-14T02:37:47.473Z,8.68
2022-08-14T02:40:18.682Z,8.60
2022-08-14T02:42:54.938Z,8.45
2022-08-14T02:45:33.201Z,8.55
2022-08-14T02:48:10.551Z,8.65
2022-08-14T02:50:56.005Z,8.73
2022-08-14T02:53:24.216Z,9.02
2022-08-14T02:55:54.746Z,9.38
2022-08-14T02:58:30.819Z,8.75
2022-08-14T03:00:59.429Z,9.18
2022-08-14T03:03:31.755Z,8.82
2022-08-14T03:06:04.856Z,8.50
2022-08-14T03:08:34.295Z,9.13
2022-08-14T03:11:08.304Z,8.95
2022-08-14T03:13:39.788Z,9.35
2022-08-14T03:16:26.543Z,9.20
2022-08-14T03:18:58.303Z,8.90
2022-08-14T03:21:28.446Z,8.57
2022-08-14T03:24:03.138Z,8.77
2022-08-14T03:26:34.070Z,9.33
2022-08-14T03:29:06.552Z,9.73
2022-08-14T03:31:42.428Z,9.00
2022-08-14T03:34:24.881Z,9.40
2022-08-14T03:37:51.228Z,9.03
2022-08-14T03:39:47.695Z,9.03
2022-08-14T03:42:19.581Z,8.43
2022-08-14T03:45:27.001Z,8.70
2022-08-14T03:47:46.535Z,8.77
2022-08-14T03:50:31.101Z,8.80
2022-08-14T03:53:02.003Z,9.23
2022-08-14T03:55:30.812Z,9.20
2022-08-14T03:58:00.678Z,9.00
2022-08-14T04:00:43.267Z,8.83
2022-08-14T04:03:19.640Z,9.53
2022-08-14T04:05:52.361Z,9.63
2022-08-14T04:08:29.020Z,9.20
2022-08-14T04:11:00.941Z,9.53
2022-08-14T04:13:32.026Z,9.63
2022-08-14T04:16:04.976Z,8.97
2022-08-14T04:18:33.883Z,9.37
2022-08-14T04:21:02.430Z,9.47
2022-08-14T04:23:33.564Z,9.37
2022-08-14T04:26:03.080Z,9.47
2022-08-14T04:29:06.786Z,9.77
2022-08-14T04:31:24.877Z,9.27
2022-08-14T04:34:20.612Z,9.77
2022-08-14T04:37:10.558Z,9.33
2022-08-14T04:39:57.324Z,9.67
2022-08-14T04:42:47.373Z,9.53
2022-08-14T04:45:22.198Z,9.57
2022-08-14T04:48:10.164Z,9.43
2022-08-14T04:50:44.720Z,9.73
2022-08-14T04:53:14.821Z,9.77
2022-08-14T04:55:46.078Z,9.83
2022-08-14T04:58:21.706Z,9.43
2022-08-14T05:01:00.907Z,10.20
2022-08-14T05:03:32.938Z,9.60
2022-08-14T05:06:03.351Z,10.13
2022-08-14T05:08:50.412Z,10.77
2022-08-14T05:11:20.743Z,9.93
2022-08-14T05:16:38.300Z,9.90
2022-08-14T05:19:17.822Z,10.20
2022-08-14T05:22:00.933Z,9.93
2022-08-14T05:24:44.203Z,10.17
2022-08-14T05:27:12.208Z,10.30
2022-08-14T05:29:40.940Z,10.20
2022-08-14T05:32:10.533Z,10.17
2022-08-14T05:34:40.064Z,10.47
2022-08-14T05:37:15.328Z,10.20
2022-08-14T05:39:43.936Z,9.82
2022-08-14T05:42:22.434Z,10.02
2022-08-14T05:44:55.987Z,10.20
2022-08-14T05:47:24.432Z,9.38
2022-08-14T05:49:59.868Z,8.98
2022-08-14T05:52:38.949Z,12.20
2022-08-14T05:55:08.533Z,9.73
2022-08-14T05:57:36.835Z,9.85
2022-08-14T06:00:05.908Z,9.27
2022-08-14T06:02:37.562Z,9.15
2022-08-14T06:05:08.917Z,9.20
2022-08-14T06:07:44.811Z,8.70
2022-08-14T06:10:23.185Z,8.50
2022-08-14T06:13:00.146Z,8.35
2022-08-14T06:15:30.673Z,8.73
2022-08-14T06:18:00.771Z,8.65
2022-08-14T06:20:31.361Z,8.00
2022-08-14T06:23:02.224Z,8.25
2022-08-14T06:25:30.273Z,8.45
2022-08-14T06:28:00.953Z,8.70
2022-08-14T06:30:45.953Z,8.48
2022-08-14T06:33:15.716Z,8.60
2022-08-14T06:35:46.633Z,8.30
2022-08-14T06:38:17.523Z,7.70
2022-08-14T06:40:46.479Z,7.97
2022-08-14T06:43:15.401Z,7.85
2022-08-14T06:45:48.318Z,7.57
2022-08-14T06:48:26.363Z,8.32
2022-08-14T06:50:58.015Z,7.80
2022-08-14T06:53:27.649Z,7.82
2022-08-14T06:56:00.602Z,8.05
2022-08-14T06:58:30.721Z,7.35
2022-08-14T07:01:19.400Z,9.68
2022-08-14T07:04:23.169Z,8.32
2022-08-14T07:06:59.650Z,7.75
2022-08-14T07:09:43.700Z,7.78
2022-08-14T07:12:54.152Z,7.30
2022-08-14T07:15:01.936Z,8.00
2022-08-14T07:17:31.941Z,7.47
2022-08-14T07:20:02.603Z,7.13
2022-08-14T07:22:32.956Z,7.35
2022-08-14T07:25:19.182Z,7.10
2022-08-14T07:27:48.135Z,7.35
2022-08-14T07:30:34.134Z,8.38
2022-08-14T07:33:03.817Z,7.32
2022-08-14T07:35:42.884Z,7.05
2022-08-14T07:38:36.291Z,6.90
2022-08-14T07:41:31.176Z,7.30
2022-08-14T07:54:42.981Z,6.97
2022-08-14T07:57:24.830Z,7.00
2022-08-14T07:59:53.180Z,6.90
2022-08-14T08:02:22.437Z,7.63
2022-08-14T08:04:54.343Z,7.40
2022-08-14T08:07:24.288Z,6.88
2022-08-14T08:09:59.635Z,7.53
2022-08-14T08:12:38.063Z,7.07
2022-08-14T08:15:08.014Z,7.10
2022-08-14T08:17:38.653Z,6.97
2022-08-14T08:20:11.445Z,6.88
2022-08-14T08:22:43.507Z,6.97
2022-08-14T08:25:18.881Z,6.90
2022-08-14T08:27:58.988Z,7.03
2022-08-14T08:30:27.183Z,6.80
2022-08-14T08:32:58.292Z,6.30
2022-08-14T08:35:32.968Z,6.00
2022-08-14T08:39:15.409Z,6.78
2022-08-14T08:41:11.069Z,6.47
2022-08-14T08:43:39.631Z,6.78
2022-08-14T08:46:18.552Z,6.63
2022-08-14T08:48:53.772Z,6.28
2022-08-14T08:51:30.517Z,6.30
2022-08-14T08:54:00.299Z,6.20
2022-08-14T08:56:40.441Z,5.97
2022-08-14T08:59:21.015Z,6.43
2022-08-14T09:01:56.367Z,6.20
2022-08-14T09:04:26.444Z,6.10
2022-08-14T09:07:10.012Z,5.90
2022-08-14T09:09:53.687Z,6.38
2022-08-14T09:12:32.547Z,5.95
2022-08-14T09:15:02.777Z,5.78
2022-08-14T09:17:30.872Z,5.93
2022-08-14T09:20:02.207Z,5.53
2022-08-14T09:22:34.893Z,5.88
2022-08-14T09:25:06.927Z,5.20
2022-08-14T09:27:37.623Z,6.57
2022-08-14T09:30:31.692Z,6.40
2022-08-14T09:33:12.358Z,5.57
2022-08-14T09:35:48.572Z,5.82
2022-08-14T09:38:28.726Z,5.88
2022-08-14T09:41:00.474Z,5.35
2022-08-14T09:43:32.364Z,5.72
2022-08-14T09:46:04.237Z,5.40
2022-08-14T09:48:32.353Z,5.65
2022-08-14T09:54:19.207Z,5.75
2022-08-14T09:56:33.000Z,5.40
2022-08-14T09:59:12.890Z,5.13
2022-08-14T10:01:43.703Z,5.55
2022-08-14T10:04:33.941Z,6.10
2022-08-14T10:07:05.512Z,6.07
2022-08-14T10:09:34.995Z,5.95
2022-08-14T10:12:04.705Z,5.68
2022-08-14T10:14:36.947Z,5.40
2022-08-14T10:17:08.654Z,5.47
2022-08-14T10:19:37.116Z,5.88
2022-08-14T10:23:22.233Z,5.80
2022-08-14T10:24:55.285Z,5.57
2022-08-14T10:27:25.113Z,5.40
2022-08-14T10:29:58.161Z,5.43
2022-08-14T10:32:36.397Z,4.95
2022-08-14T10:35:13.661Z,5.55
2022-08-14T10:37:44.303Z,5.90
2022-08-14T10:40:37.697Z,5.45
2022-08-14T10:43:02.752Z,5.70
2022-08-14T10:45:35.713Z,5.13
2022-08-14T10:48:24.473Z,4.97
2022-08-14T10:51:08.390Z,5.13
2022-08-14T10:53:39.994Z,5.18
2022-08-14T10:56:21.831Z,5.15
2022-08-14T10:59:02.447Z,5.38
2022-08-14T11:01:41.454Z,5.13
2022-08-14T11:04:27.649Z,5.68
2022-08-14T11:06:56.195Z,4.55
2022-08-14T11:09:26.471Z,5.10
2022-08-14T11:12:36.702Z,5.65
2022-08-14T11:14:58.905Z,5.38
2022-08-14T11:17:31.757Z,5.78
2022-08-14T11:20:01.345Z,5.35
2022-08-14T11:23:03.185Z,5.13
2022-08-14T11:25:19.481Z,5.30
2022-08-14T11:27:49.125Z,5.40
2022-08-14T11:30:50.273Z,5.30
2022-08-14T11:33:09.088Z,5.22
2022-08-14T11:35:47.463Z,5.65
2022-08-14T11:38:17.027Z,5.20
2022-08-14T11:40:47.153Z,5.18
2022-08-14T11:43:16.286Z,5.45
2022-08-14T11:45:47.940Z,5.07
2022-08-14T11:49:04.265Z,16.42
2022-08-14T11:51:13.878Z,5.50
2022-08-14T11:53:43.679Z,5.32
2022-08-14T11:56:13.708Z,5.10
2022-08-14T11:58:42.380Z,4.88
2022-08-14T12:01:10.460Z,4.68
2022-08-14T12:03:51.479Z,4.35
2022-08-14T12:06:28.866Z,4.70
2022-08-14T12:09:08.930Z,4.45
2022-08-14T12:11:46.961Z,4.70
2022-08-14T12:14:29.810Z,4.30
2022-08-14T12:17:01.938Z,4.95
2022-08-14T12:19:33.412Z,4.70
2022-08-14T12:22:02.989Z,5.43
2022-08-14T12:24:36.174Z,5.57
2022-08-14T12:27:05.435Z,6.15
2022-08-14T12:29:35.093Z,5.65
2022-08-14T12:32:08.920Z,5.63
2022-08-14T12:34:40.271Z,5.85
2022-08-14T12:37:13.200Z,5.55
2022-08-14T12:39:41.163Z,5.55
2022-08-14T12:42:11.878Z,5.20
2022-08-14T12:44:57.662Z,5.50
2022-08-14T12:47:31.171Z,5.40
2022-08-14T12:50:00.590Z,4.72
2022-08-14T12:52:43.053Z,5.30
2022-08-14T12:55:20.963Z,5.35
2022-08-14T12:57:53.147Z,5.43
2022-08-14T13:00:24.293Z,5.53
2022-08-14T13:02:55.464Z,24.30
2022-08-14T13:05:27.443Z,4.95
2022-08-14T13:07:59.287Z,5.32
2022-08-14T13:10:51.369Z,5.75
2022-08-14T13:13:17.302Z,5.55
2022-08-14T13:15:46.382Z,4.60
2022-08-14T13:18:15.666Z,4.85
2022-08-14T13:20:49.411Z,4.75
2022-08-14T13:23:31.769Z,5.00
2022-08-14T13:26:00.307Z,5.53
2022-08-14T13:28:33.398Z,5.32
2022-08-14T13:33:37.223Z,5.32
2022-08-14T13:36:11.024Z,4.97
2022-08-14T13:38:51.864Z,5.13
2022-08-14T13:41:31.848Z,5.65
2022-08-14T13:44:03.363Z,5.00
2022-08-14T13:46:31.320Z,5.43
2022-08-14T13:49:00.108Z,6.03
2022-08-14T13:51:31.992Z,5.22
2022-08-14T13:54:10.108Z,5.13
2022-08-14T13:56:39.813Z,5.43
2022-08-14T13:59:07.928Z,5.07
2022-08-14T14:01:42.910Z,5.40
2022-08-14T14:04:19.229Z,5.65
2022-08-14T14:06:50.942Z,5.45
2022-08-14T14:09:32.348Z,5.57
2022-08-14T14:12:06.376Z,5.10
2022-08-14T14:14:51.612Z,5.68
2022-08-14T14:17:24.529Z,5.35
2022-08-14T14:19:52.479Z,5.32
2022-08-14T14:22:35.450Z,5.43
2022-08-14T14:25:14.402Z,5.32
2022-08-14T14:27:48.966Z,4.80
2022-08-14T14:30:46.482Z,5.18
2022-08-14T14:33:44.173Z,4.53
2022-08-14T14:35:59.417Z,4.80
2022-08-14T14:38:30.959Z,5.45
2022-08-14T14:41:01.397Z,4.78
2022-08-14T14:43:29.596Z,5.13
2022-08-14T14:45:57.826Z,5.32
2022-08-14T14:48:27.116Z,5.45
2022-08-14T14:50:57.037Z,5.70
2022-08-14T14:53:25.543Z,5.55
2022-08-14T14:56:47.698Z,4.75
2022-08-14T14:58:45.910Z,4.82
2022-08-14T15:01:14.370Z,4.30
2022-08-14T15:03:43.205Z,4.65
2022-08-14T15:06:11.056Z,4.82
2022-08-14T15:08:56.767Z,4.30
2022-08-14T15:11:30.493Z,4.55
2022-08-14T15:13:59.966Z,4.43
2022-08-14T15:16:28.149Z,4.38
2022-08-14T15:18:56.066Z,4.07
2022-08-14T15:21:25.574Z,4.80
2022-08-14T15:23:55.196Z,4.20
2022-08-14T15:26:31.462Z,4.43
2022-08-14T15:29:04.919Z,4.75
2022-08-14T15:31:34.737Z,4.20
2022-08-14T15:34:43.646Z,8.30
2022-08-14T15:37:01.507Z,4.43
2022-08-14T15:39:33.760Z,4.43
2022-08-14T15:42:14.286Z,4.40
2022-08-14T15:44:56.789Z,4.30
2022-08-14T15:47:27.950Z,5.32
2022-08-14T15:49:59.172Z,6.50
2022-08-14T15:52:32.482Z,5.18
2022-08-14T15:55:03.479Z,5.20
2022-08-14T15:57:32.274Z,5.00
2022-08-14T16:00:39.991Z,5.75
2022-08-14T16:03:11.609Z,5.70
2022-08-14T16:05:39.663Z,5.20
2022-08-14T16:08:27.263Z,6.05
2022-08-14T16:10:56.917Z,4.30
2022-08-14T16:13:39.895Z,3.70
2022-08-14T16:16:49.741Z,3.90
2022-08-14T16:19:03.183Z,3.42
2022-08-14T16:21:31.550Z,4.70
2022-08-14T16:24:00.654Z,3.65
2022-08-14T16:26:29.283Z,3.88
2022-08-14T16:29:02.553Z,4.00
2022-08-14T16:31:36.323Z,4.20
2022-08-14T16:34:45.060Z,4.50
2022-08-14T16:36:53.350Z,4.13
2022-08-14T16:39:21.235Z,4.70
2022-08-14T16:41:51.201Z,4.78
2022-08-14T16:44:23.173Z,4.90
2022-08-14T16:47:01.668Z,5.15
2022-08-14T16:50:03.043Z,5.88
2022-08-14T16:52:25.666Z,5.85
2022-08-14T16:55:06.894Z,5.80
2022-08-14T16:57:34.763Z,7.40
2022-08-14T17:00:07.176Z,4.72
2022-08-14T17:02:50.311Z,4.88
2022-08-14T17:05:19.898Z,5.15
2022-08-14T17:08:28.425Z,4.95
2022-08-14T17:11:09.760Z,5.18
2022-08-14T17:13:59.347Z,4.97
2022-08-14T17:16:26.416Z,4.68
2022-08-14T17:19:00.943Z,4.97
2022-08-14T17:21:31.238Z,6.10
2022-08-14T17:24:00.703Z,7.90
2022-08-14T17:26:37.085Z,7.75
2022-08-14T17:29:08.727Z,7.88
2022-08-14T17:31:58.579Z,8.00
2022-08-14T17:34:26.128Z,7.00
2022-08-14T17:37:01.789Z,6.00
2022-08-14T17:39:40.093Z,5.80
2022-08-14T17:42:13.298Z,6.60
2022-08-14T17:44:45.002Z,6.53
2022-08-14T17:47:14.762Z,6.15
2022-08-14T17:49:51.971Z,7.57
2022-08-14T17:52:35.823Z,8.75
2022-08-14T17:55:04.740Z,9.77
2022-08-14T17:57:35.217Z,10.80
2022-08-14T18:00:10.503Z,10.70
2022-08-14T18:02:41.099Z,9.07
2022-08-14T18:05:23.394Z,8.85
2022-08-14T18:08:33.137Z,8.57
2022-08-14T18:10:55.326Z,7.40
2022-08-14T18:13:49.998Z,5.88
2022-08-14T18:16:20.172Z,5.30
2022-08-14T18:18:49.926Z,5.85
2022-08-14T18:21:42.153Z,5.93
2022-08-14T18:24:20.029Z,5.03
2022-08-14T18:27:01.736Z,5.88
2022-08-14T18:30:32.090Z,5.57
2022-08-14T18:32:54.918Z,5.50
2022-08-14T18:35:24.321Z,4.80
2022-08-14T18:38:25.618Z,5.03
2022-08-14T18:40:55.216Z,5.20
2022-08-14T18:43:43.187Z,5.07
2022-08-14T18:47:00.158Z,5.68
2022-08-14T18:49:14.659Z,6.00
2022-08-14T18:51:45.496Z,5.15
2022-08-14T18:54:29.698Z,5.90
2022-08-14T18:57:01.134Z,4.97
2022-08-14T18:59:30.110Z,5.45
2022-08-14T19:02:42.545Z,5.95
2022-08-14T19:05:10.962Z,4.72
2022-08-14T19:07:40.483Z,5.25
2022-08-14T19:10:17.088Z,5.85
2022-08-14T19:13:05.358Z,5.50
2022-08-14T19:15:42.621Z,6.18
2022-08-14T19:18:25.944Z,5.57
2022-08-14T19:20:58.205Z,6.35
2022-08-14T19:23:40.581Z,5.60
2022-08-14T19:26:36.707Z,5.57
2022-08-14T19:29:26.730Z,5.50
2022-08-14T19:32:06.895Z,6.07
2022-08-14T19:34:40.478Z,5.82
2022-08-14T19:37:28.507Z,5.55
2022-08-14T19:40:15.229Z,5.55
2022-08-14T19:42:49.437Z,5.72
2022-08-14T19:45:18.786Z,5.90
2022-08-14T19:47:49.915Z,6.00
2022-08-14T19:50:31.176Z,6.97
2022-08-14T19:53:11.115Z,6.28
2022-08-14T19:55:45.791Z,5.97
2022-08-14T19:58:15.261Z,6.03
2022-08-14T20:00:52.210Z,5.80
2022-08-14T20:03:24.012Z,6.20
2022-08-14T20:06:05.774Z,6.50
2022-08-14T20:11:00.004Z,6.65
2022-08-14T20:11:44.494Z,6.00
2022-08-14T20:14:22.974Z,6.10
2022-08-14T20:17:03.172Z,6.07
2022-08-14T20:19:37.725Z,6.63
2022-08-14T20:22:36.675Z,6.97
2022-08-14T20:25:02.798Z,6.45
2022-08-14T20:27:39.605Z,6.20
2022-08-14T20:30:32.863Z,6.03
2022-08-14T20:33:02.523Z,6.05
2022-08-14T20:35:35.391Z,6.25
2022-08-14T20:38:29.052Z,5.78
2022-08-14T20:40:54.123Z,6.38
2022-08-14T20:43:40.344Z,6.93
2022-08-14T20:46:14.443Z,7.00
2022-08-14T20:48:53.371Z,5.90
2022-08-14T20:51:24.179Z,7.00
2022-08-14T20:54:01.646Z,6.40
2022-08-14T20:56:35.334Z,6.60
2022-08-14T20:59:17.518Z,6.57
2022-08-14T21:01:50.144Z,6.18
2022-08-14T21:04:26.966Z,6.43
2022-08-14T21:07:33.719Z,6.43
2022-08-14T21:10:04.776Z,5.70
2022-08-14T21:12:35.860Z,6.55
2022-08-14T21:15:11.128Z,6.97
2022-08-14T21:17:41.490Z,6.95
2022-08-14T21:20:25.526Z,7.20
2022-08-14T21:22:56.638Z,6.65
2022-08-14T21:25:28.163Z,6.82
2022-08-14T21:28:00.175Z,7.03
2022-08-14T21:30:51.825Z,7.28
2022-08-14T21:33:20.540Z,6.78
2022-08-14T21:35:50.038Z,6.43
2022-08-14T21:38:34.210Z,7.22
2022-08-14T21:41:42.271Z,7.28
2022-08-14T21:44:17.877Z,7.10
2022-08-14T21:46:50.475Z,6.72
2022-08-14T21:49:21.012Z,7.65
2022-08-14T21:52:05.215Z,7.60
2022-08-14T21:54:49.568Z,7.28
2022-08-14T21:57:53.438Z,7.75
2022-08-14T22:00:30.275Z,7.05
2022-08-14T22:03:01.764Z,7.22
2022-08-14T22:05:31.285Z,7.22
2022-08-14T22:07:59.141Z,7.15
2022-08-14T22:10:30.581Z,7.40
2022-08-14T22:13:01.574Z,7.65
2022-08-14T22:15:30.165Z,8.07
2022-08-14T22:17:58.331Z,7.72
2022-08-14T22:20:28.279Z,7.10
2022-08-14T22:22:58.718Z,7.80
2022-08-14T22:25:33.882Z,7.20
2022-08-14T22:28:02.422Z,7.72
2022-08-14T22:30:31.373Z,7.68
2022-08-14T22:33:00.180Z,7.03
2022-08-14T22:35:28.280Z,7.40
2022-08-14T22:38:35.013Z,7.38
2022-08-14T22:41:09.662Z,7.13
2022-08-14T22:43:35.239Z,7.65
2022-08-14T22:46:06.299Z,7.82
2022-08-14T22:48:45.069Z,7.65
2022-08-14T22:51:13.728Z,8.10
2022-08-14T22:53:43.630Z,7.72
2022-08-14T22:56:20.897Z,7.60
2022-08-14T22:58:53.536Z,7.70
2022-08-14T23:01:23.505Z,7.45
2022-08-14T23:03:52.653Z,7.35
2022-08-14T23:07:03.076Z,7.88
2022-08-14T23:09:36.682Z,7.72
2022-08-14T23:11:58.018Z,7.30
2022-08-14T23:14:29.749Z,7.95
2022-08-14T23:16:58.707Z,8.07
2022-08-14T23:19:33.540Z,7.93
2022-08-14T23:22:02.080Z,8.13
2022-08-14T23:24:31.349Z,8.93
2022-08-14T23:26:59.233Z,7.65
2022-08-14T23:29:27.241Z,7.20
2022-08-14T23:31:59.612Z,7.80
2022-08-14T23:34:29.478Z,8.18
2022-08-14T23:36:58.216Z,7.47
2022-08-14T23:39:34.670Z,7.13
2022-08-14T23:42:05.128Z,7.72
2022-08-14T23:44:35.225Z,7.10
2022-08-14T23:47:10.538Z,7.20
2022-08-14T23:50:01.400Z,7.63
2022-08-14T23:53:04.077Z,7.25
2022-08-14T23:55:18.193Z,8.30
2022-08-14T23:57:57.202Z,6.97
